Redstone Army Air Field
KHUA : now visible

Airfield :











YOU CAN JOIN US ON...

 
LOGIN :

Register | Disclaimer

   EN    FR    IT 

 









Legend :    VFR   Marginal VFR   IFR   Intensive IFR   Very Intensive IFR
Visi :
Ceiling :
>= 8 km
>= 3000ft
5 to 8 km
1000 to 3000 ft
1500m to 5 km
500 to 1000 ft
800 to 1500m
200 to 500 ft
< 800m
< 200 ft
Symbols :   Thunderstorms  Fog  Heavy snow  Heavy precipitations  Wind > 20 kt






- Airport Elevation : 684 ft


KHUA - Redstone Army Air Field

CURRENT METAR :
  • 200758Z AUTO 00000KT 9SM FEW009 OVC031 15/14 A2982 RMK AO2 SLP096 T01490144

EXPIRED METARs :
  • 200738Z AUTO 00000KT 10SM OVC030 15/14 A2982 RMK AO2 SLP096
  • 200658Z AUTO 00000KT 10SM OVC028 15/14 A2983 RMK AO2 SLP100 T01480143
  • 200618Z AUTO 00000KT 10SM OVC030 15/14 A2982 RMK AO2 SLP096
  • 200558Z AUTO 00000KT 8SM OVC027 15/14 A2981 RMK AO2 SLP093 T01460141 10161 20135 401810135 53004
  • 200518Z AUTO 00000KT 9SM OVC029 15/14 A2980 RMK AO2 SLP090

TAF N/A



MET'MAP, your aeronautical weather chart ! - Copyright ORBIFLY December 2007 - Disclaimer

ORBIFLY MET'MAP TEAM :

Programming & Development : Alexandra Zaïnal
Concept & Development : Baudouin d'Aumeries
Co-Development & Prog : Marc-Olivier Méhu
Technical & hardware support : Manuel Goepfert

Contact : metmap@orbifly.com




SOURCES & CREDITS :

   NOAA       Earth
Advisory